CheckWX is a tool to help pilots better visualize weather data.  It is not intended as a substitute for an official pre-flight weather briefing.

18:09:03 UTC

KDAY METAR
James M Cox Dayton International Airport
Dayton, Ohio, USA
Current

13 mins ago

KDAY 211756Z 22011KT 10SM SCT043 SCT250 33/22 A2995 RMK AO2 SLP131 T03280222 10328 20267 58014
Observed
Jul-21 @ 17:56 UTC
Wind
  • 220° at 11 KTS
Visibility
10 SM
Flight Rules
VFR
Cloud Levels
  • Scattered at 4,300' AGL
  • Scattered at 25,000' AGL
Temperature
33°C / 91°F
Dewpoint
22°C / 72°F
Heat Index
37°C / 98°F
Humidity
52%
Altimeter
29.95" Hg
Pressure
1014.22 hPa
Previous

1 hour ago

KDAY 211656Z 28007KT 10SM SCT038 SCT250 32/23 A2998 RMK AO2 SLP140 T03170233
Observed
Jul-21 @ 16:56 UTC
Wind
  • 280° at 7 KTS
Visibility
10 SM
Flight Rules
VFR
Cloud Levels
  • Scattered at 3,800' AGL
  • Scattered at 25,000' AGL
Temperature
32°C / 90°F
Dewpoint
23°C / 73°F
Heat Index
37°C / 99°F
Humidity
59%
Altimeter
29.98" Hg
Pressure
1015.22 hPa
Previous

2 hours ago

KDAY 211556Z 23006KT 10SM SCT030 BKN065 32/23 A2999 RMK AO2 LTG DSNT E SLP144 T03170233
Observed
Jul-21 @ 15:56 UTC
Wind
  • 230° at 6 KTS
Visibility
10 SM
Flight Rules
VFR
Cloud Levels
  • Scattered at 3,000' AGL
  • Broken at 6,500' AGL
Temperature
32°C / 90°F
Dewpoint
23°C / 73°F
Heat Index
37°C / 99°F
Humidity
59%
Altimeter
29.99" Hg
Pressure
1015.62 hPa